Time;durP1;ratioP1;P1;durP2;ratioP2;P2;SDS_P1;SDS_P2;PMS_P1;PMS_P2;Temp;Humidity;BMP_temperature;BMP_pressure;BME280_temperature;BME280_humidity;BME280_pressure;Samples;Min_cycle;Max_cycle;Signal;HPM_P1;HPM_P2
2022/03/06 00:00:21;;;;;;;89.00;49.92;;;128.50;2252.80;;;;;;5072938;28;20020;-59
2022/03/06 00:02:47;;;;;;;67.35;43.47;;;128.60;2252.80;;;;;;5073688;28;20068;-59
2022/03/06 00:05:13;;;;;;;71.05;43.35;;;128.70;2252.80;;;;;;5074007;28;20039;-60
2022/03/06 00:07:39;;;;;;;70.80;42.67;;;128.60;2252.80;;;;;;5073700;28;20085;-61
2022/03/06 00:10:05;;;;;;;72.85;41.38;;;128.50;2252.80;;;;;;5073879;28;20036;-59
2022/03/06 00:12:31;;;;;;;76.05;44.38;;;128.40;2252.80;;;;;;5073721;28;20036;-61
2022/03/06 00:14:57;;;;;;;77.93;45.78;;;128.40;2252.80;;;;;;5073669;28;20032;-58
2022/03/06 00:17:22;;;;;;;75.75;42.33;;;128.60;2252.80;;;;;;5073886;28;20056;-60
2022/03/06 00:19:48;;;;;;;74.80;43.53;;;128.50;2252.80;;;;;;5073689;28;20394;-58
2022/03/06 00:22:14;;;;;;;80.80;48.05;;;128.60;2252.80;;;;;;5073926;28;20032;-60
2022/03/06 00:24:40;;;;;;;74.68;45.85;;;128.60;2252.80;;;;;;5073251;28;20025;-58
2022/03/06 00:27:06;;;;;;;79.35;46.83;;;128.70;2252.80;;;;;;5073329;28;20051;-59
2022/03/06 00:29:31;;;;;;;82.47;52.63;;;128.60;2252.80;;;;;;5073207;28;20055;-58
2022/03/06 00:31:57;;;;;;;82.03;50.55;;;128.70;2252.80;;;;;;5073731;28;20078;-58
2022/03/06 00:34:23;;;;;;;100.88;57.28;;;128.70;2252.80;;;;;;5073118;28;20398;-60
2022/03/06 00:36:48;;;;;;;98.28;59.28;;;128.50;2252.80;;;;;;5072725;28;20538;-59
2022/03/06 00:39:14;;;;;;;80.00;51.53;;;128.60;2252.80;;;;;;5073544;28;20028;-58
2022/03/06 00:41:40;;;;;;;90.95;53.30;;;128.60;2252.80;;;;;;5073150;28;20430;-58
2022/03/06 00:44:06;;;;;;;89.45;55.60;;;128.40;2252.80;;;;;;5073188;28;20029;-60
2022/03/06 00:46:31;;;;;;;88.25;55.65;;;128.50;2252.80;;;;;;5073102;28;20074;-60
2022/03/06 00:48:57;;;;;;;93.93;54.78;;;128.40;2252.80;;;;;;5073346;28;20025;-58
2022/03/06 00:51:23;;;;;;;94.03;58.00;;;128.50;2252.80;;;;;;5072905;28;20029;-59
2022/03/06 00:53:49;;;;;;;93.60;61.13;;;128.50;2252.80;;;;;;5072817;28;20020;-60
2022/03/06 00:56:15;;;;;;;95.85;52.60;;;128.50;2252.80;;;;;;5072971;28;20115;-61
2022/03/06 00:58:41;;;;;;;96.00;56.70;;;128.30;2252.80;;;;;;5072661;28;20064;-60
2022/03/06 01:01:06;;;;;;;91.95;59.38;;;128.40;2252.80;;;;;;5073113;28;20411;-60
2022/03/06 01:03:32;;;;;;;96.53;55.17;;;128.40;2252.80;;;;;;5073001;28;20033;-59
2022/03/06 01:05:58;;;;;;;86.45;54.55;;;128.50;2252.80;;;;;;5072913;28;20028;-59
2022/03/06 01:08:24;;;;;;;91.95;57.97;;;128.50;2252.80;;;;;;5072917;28;20155;-59
2022/03/06 01:10:51;;;;;;;101.93;61.17;;;128.50;2252.80;;;;;;5072492;28;20044;-58
2022/03/06 01:13:18;;;;;;;94.95;58.40;;;128.40;2252.80;;;;;;5072905;28;20479;-58
2022/03/06 01:15:44;;;;;;;94.30;57.00;;;128.50;2252.80;;;;;;5072924;28;20469;-60
2022/03/06 01:18:10;;;;;;;90.50;52.47;;;128.30;2252.80;;;;;;5072548;28;20107;-60
2022/03/06 01:20:37;;;;;;;86.38;52.83;;;128.40;2252.80;;;;;;5072698;28;20364;-60
2022/03/06 01:23:04;;;;;;;82.45;49.10;;;128.20;2252.80;;;;;;5072687;28;20028;-61
2022/03/06 01:25:30;;;;;;;85.18;48.78;;;128.40;2252.80;;;;;;5072261;28;20386;-60
2022/03/06 01:27:56;;;;;;;75.20;46.42;;;128.00;2252.80;;;;;;5072404;28;20098;-58
2022/03/06 01:30:23;;;;;;;82.07;49.40;;;103.30;2227.20;;;;;;5072556;28;20032;-58
2022/03/06 01:32:52;;;;;;;80.18;50.85;;;103.10;2227.20;;;;;;5071720;28;20043;-58
2022/03/06 01:35:19;;;;;;;72.32;44.95;;;103.10;2227.20;;;;;;5069335;28;20056;-59
2022/03/06 01:37:46;;;;;;;79.63;49.70;;;103.00;2227.20;;;;;;5072121;28;20020;-58
2022/03/06 01:40:13;;;;;;;79.03;46.22;;;102.80;2227.20;;;;;;5071444;28;20081;-58
2022/03/06 01:42:43;;;;;;;75.13;42.40;;;102.70;2227.20;;;;;;5071467;28;20112;-58
2022/03/06 01:45:10;;;;;;;78.28;45.35;;;102.80;2227.20;;;;;;5069228;28;20096;-58
2022/03/06 01:47:49;;;;;;;78.57;45.88;;;102.80;2227.20;;;;;;5072061;28;20059;-58
2022/03/06 01:50:32;;;;;;;84.05;46.17;;;102.70;2227.20;;;;;;5072111;28;20522;-58
2022/03/06 01:53:00;;;;;;;74.15;45.92;;;102.50;2227.20;;;;;;5071919;28;20051;-59
2022/03/06 01:55:27;;;;;;;71.78;42.88;;;;;;;;;;5071797;28;20470;-58
2022/03/06 01:57:55;;;;;;;66.47;38.78;;;102.80;2227.20;;;;;;5072128;28;20040;-58
2022/03/06 02:00:26;;;;;;;71.85;43.33;;;102.70;2227.20;;;;;;5071738;28;20419;-58
2022/03/06 02:02:53;;;;;;;75.43;41.60;;;102.60;2227.20;;;;;;5071651;28;20067;-59
2022/03/06 02:05:19;;;;;;;77.38;43.70;;;77.60;2227.20;;;;;;5071542;28;20028;-58
2022/03/06 02:07:45;;;;;;;71.53;41.85;;;77.40;2227.20;;;;;;5071911;28;20036;-59
2022/03/06 02:10:13;;;;;;;74.22;44.80;;;77.60;2227.20;;;;;;5071355;28;20513;-58
2022/03/06 02:12:40;;;;;;;60.63;37.88;;;77.60;2227.20;;;;;;5071485;28;20483;-59
2022/03/06 02:15:09;;;;;;;69.13;41.63;;;102.60;2227.20;;;;;;5070282;28;20378;-58
2022/03/06 02:17:37;;;;;;;64.20;37.70;;;102.70;2227.20;;;;;;5071561;28;20516;-59
2022/03/06 02:20:03;;;;;;;63.95;37.13;;;102.90;2227.20;;;;;;5071635;28;20021;-58
2022/03/06 02:22:34;;;;;;;58.95;36.83;;;103.00;2227.20;;;;;;5070808;28;20127;-58
2022/03/06 02:25:03;;;;;;;55.25;33.88;;;103.00;2227.20;;;;;;5071246;28;20025;-58
2022/03/06 02:27:29;;;;;;;57.33;33.72;;;103.00;2227.20;;;;;;5070946;28;20148;-58
2022/03/06 02:29:55;;;;;;;60.97;36.45;;;103.10;2227.20;;;;;;5071339;28;20123;-58
2022/03/06 02:32:22;;;;;;;65.47;37.63;;;103.10;2227.20;;;;;;5071128;28;20119;-58
2022/03/06 02:34:49;;;;;;;79.50;47.20;;;103.20;2227.20;;;;;;5071294;28;20417;-59
2022/03/06 02:37:18;;;;;;;71.15;45.15;;;103.20;2227.20;;;;;;5071208;28;20020;-57
2022/03/06 02:39:44;;;;;;;77.28;45.67;;;103.30;2227.20;;;;;;5071107;28;20039;-57
2022/03/06 02:42:21;;;;;;;62.00;42.30;;;103.20;2227.20;;;;;;5071071;28;20363;-60
2022/03/06 02:44:47;;;;;;;78.20;46.00;;;103.30;2227.20;;;;;;5071021;28;20543;-58
2022/03/06 02:47:13;;;;;;;70.22;44.83;;;103.30;2227.20;;;;;;5071123;28;20025;-57
2022/03/06 02:49:38;;;;;;;68.65;42.00;;;103.30;2227.20;;;;;;5070662;28;20050;-58
2022/03/06 02:52:08;;;;;;;79.30;49.80;;;103.30;2227.20;;;;;;5070911;28;20051;-57
2022/03/06 02:54:34;;;;;;;64.53;39.50;;;103.20;2227.20;;;;;;5070684;28;20052;-58
2022/03/06 02:57:00;;;;;;;70.32;43.45;;;103.20;2227.20;;;;;;5070528;28;20036;-58
2022/03/06 02:59:25;;;;;;;106.03;61.10;;;103.20;2227.20;;;;;;5070735;28;20531;-58
2022/03/06 03:01:51;;;;;;;112.88;70.05;;;103.20;2227.20;;;;;;5070469;28;20031;-58
2022/03/06 03:04:17;;;;;;;83.57;50.85;;;103.20;2227.20;;;;;;5070785;28;20103;-58
2022/03/06 03:06:44;;;;;;;79.97;51.72;;;103.20;2227.20;;;;;;5070580;28;20025;-58
2022/03/06 03:09:10;;;;;;;90.28;55.30;;;103.20;2227.20;;;;;;5070217;28;20024;-58
2022/03/06 03:11:36;;;;;;;95.32;53.70;;;103.30;2227.20;;;;;;5070546;28;20044;-57
2022/03/06 03:14:02;;;;;;;71.60;43.65;;;128.00;2252.80;;;;;;5070387;28;20044;-58
2022/03/06 03:16:29;;;;;;;81.50;46.33;;;103.30;2227.20;;;;;;5070284;28;20025;-58
2022/03/06 03:18:55;;;;;;;69.53;45.30;;;103.20;2227.20;;;;;;5070428;28;20047;-58
2022/03/06 03:21:20;;;;;;;74.35;45.45;;;103.30;2227.20;;;;;;5070199;28;20466;-58
2022/03/06 03:23:46;;;;;;;75.57;43.30;;;103.20;2227.20;;;;;;5070344;28;20029;-58
2022/03/06 03:26:12;;;;;;;68.28;40.28;;;103.10;2227.20;;;;;;5070115;28;20434;-58
2022/03/06 03:28:38;;;;;;;66.50;39.60;;;103.20;2227.20;;;;;;5070008;28;20060;-59
2022/03/06 03:31:03;;;;;;;61.58;39.42;;;102.80;2227.20;;;;;;5070222;28;20036;-59
2022/03/06 03:33:29;;;;;;;61.97;38.15;;;103.00;2227.20;;;;;;5069153;28;20025;-58
2022/03/06 03:35:56;;;;;;;62.28;40.78;;;102.90;2227.20;;;;;;5070331;28;20036;-58
2022/03/06 03:38:22;;;;;;;60.25;38.70;;;102.90;2227.20;;;;;;5069868;28;20029;-58
2022/03/06 03:40:48;;;;;;;67.05;40.22;;;102.60;2227.20;;;;;;5070392;28;20111;-58
2022/03/06 03:43:13;;;;;;;59.60;37.15;;;102.70;2227.20;;;;;;5070424;28;20060;-60
2022/03/06 03:45:39;;;;;;;73.47;42.67;;;102.70;2227.20;;;;;;5070102;28;20040;-58
2022/03/06 03:48:05;;;;;;;69.10;40.40;;;102.50;2227.20;;;;;;5070102;28;20032;-59
2022/03/06 03:50:31;;;;;;;60.65;36.78;;;102.50;2227.20;;;;;;5069836;28;20063;-60
2022/03/06 03:52:56;;;;;;;68.43;38.10;;;102.60;2227.20;;;;;;5070109;28;20040;-60
2022/03/06 03:55:22;;;;;;;79.80;44.60;;;102.40;2227.20;;;;;;5069724;28;20040;-58
2022/03/06 03:57:48;;;;;;;75.30;39.15;;;102.40;2227.20;;;;;;5069826;28;20100;-58
2022/03/06 04:00:14;;;;;;;64.55;40.72;;;102.40;2227.20;;;;;;5070210;28;20120;-61
2022/03/06 04:02:40;;;;;;;70.38;41.78;;;77.50;2227.20;;;;;;5069913;28;20020;-58
2022/03/06 04:05:06;;;;;;;64.63;42.15;;;77.40;2227.20;;;;;;5070025;28;20466;-58
2022/03/06 04:07:31;;;;;;;72.95;41.38;;;77.40;2227.20;;;;;;5069599;28;20021;-58
2022/03/06 04:09:57;;;;;;;72.65;43.20;;;77.40;2227.20;;;;;;5069691;28;20033;-61
2022/03/06 04:12:23;;;;;;;68.38;41.25;;;77.60;2227.20;;;;;;5069842;28;20032;-58
2022/03/06 04:14:48;;;;;;;67.10;39.85;;;77.70;2227.20;;;;;;5069556;28;20074;-58
2022/03/06 04:17:14;;;;;;;68.75;40.75;;;77.70;2227.20;;;;;;5069880;28;20086;-60
2022/03/06 04:19:40;;;;;;;67.15;37.00;;;102.40;2227.20;;;;;;5069648;28;20082;-58
2022/03/06 04:22:06;;;;;;;70.95;40.95;;;102.40;2227.20;;;;;;5070033;28;20036;-61
2022/03/06 04:24:31;;;;;;;78.07;43.05;;;77.70;2227.20;;;;;;5068890;28;20085;-60
2022/03/06 04:26:57;;;;;;;72.57;41.20;;;77.70;2227.20;;;;;;5067984;28;20457;-58
2022/03/06 04:29:23;;;;;;;71.90;43.85;;;102.40;2227.20;;;;;;5069158;28;20531;-58
2022/03/06 04:31:49;;;;;;;83.03;50.45;;;77.60;2227.20;;;;;;5069647;28;20081;-58
2022/03/06 04:34:16;;;;;;;69.15;41.20;;;77.50;2227.20;;;;;;5069605;28;20073;-59
2022/03/06 04:36:42;;;;;;;77.20;43.72;;;102.40;2227.20;;;;;;5069508;28;20105;-58
2022/03/06 04:39:08;;;;;;;73.63;40.30;;;102.40;2227.20;;;;;;5069380;28;20486;-61
2022/03/06 04:41:34;;;;;;;68.97;40.78;;;102.40;2227.20;;;;;;5069850;28;20028;-59
2022/03/06 04:43:59;;;;;;;60.10;36.10;;;102.40;2227.20;;;;;;5069555;28;20032;-58
2022/03/06 04:46:26;;;;;;;69.18;39.30;;;102.50;2227.20;;;;;;5072745;28;20086;-59
2022/03/06 04:48:51;;;;;;;67.57;39.10;;;102.40;2227.20;;;;;;5073231;28;20111;-59
2022/03/06 04:51:17;;;;;;;71.75;42.78;;;102.40;2227.20;;;;;;5073344;28;20132;-58
2022/03/06 04:53:43;;;;;;;65.40;39.53;;;102.40;2227.20;;;;;;5073087;28;20033;-58
2022/03/06 04:56:09;;;;;;;69.95;40.45;;;102.40;2227.20;;;;;;5072774;28;20044;-59
2022/03/06 04:58:35;;;;;;;71.55;43.22;;;77.70;2227.20;;;;;;5073323;28;20040;-59
2022/03/06 05:01:02;;;;;;;75.03;39.97;;;102.40;2227.20;;;;;;5073011;28;20035;-58
2022/03/06 05:03:28;;;;;;;71.07;40.75;;;102.50;2227.20;;;;;;5072902;28;20491;-59
2022/03/06 05:05:54;;;;;;;73.72;42.33;;;102.60;2227.20;;;;;;5072979;28;20378;-57
2022/03/06 05:08:20;;;;;;;72.00;41.15;;;102.50;2227.20;;;;;;5072736;28;20021;-57
2022/03/06 05:10:46;;;;;;;74.35;45.10;;;102.70;2227.20;;;;;;5072683;28;20039;-60
2022/03/06 05:13:11;;;;;;;66.30;42.85;;;102.50;2227.20;;;;;;5072756;28;20024;-58
2022/03/06 05:15:37;;;;;;;66.32;40.83;;;102.60;2227.20;;;;;;5072855;28;20025;-57
2022/03/06 05:18:03;;;;;;;75.50;47.40;;;102.80;2227.20;;;;;;5072651;28;20025;-57
2022/03/06 05:20:29;;;;;;;73.68;44.95;;;102.60;2227.20;;;;;;5072564;28;20386;-57
2022/03/06 05:22:55;;;;;;;72.13;45.90;;;102.70;2227.20;;;;;;5072623;28;20035;-58
2022/03/06 05:25:20;;;;;;;72.22;47.58;;;102.70;2227.20;;;;;;5072357;28;20029;-57
2022/03/06 05:27:46;;;;;;;69.43;44.75;;;77.70;2227.20;;;;;;5072283;28;20066;-57
2022/03/06 05:30:13;;;;;;;70.38;46.40;;;102.50;2227.20;;;;;;5072340;28;20479;-60
2022/03/06 05:32:39;;;;;;;65.80;40.15;;;102.50;2227.20;;;;;;5072400;28;20032;-57
2022/03/06 05:35:06;;;;;;;65.18;39.95;;;102.60;2227.20;;;;;;5072482;28;20033;-58
2022/03/06 05:37:32;;;;;;;81.13;47.35;;;102.40;2227.20;;;;;;5072287;28;20108;-58
2022/03/06 05:39:58;;;;;;;70.38;43.53;;;77.70;2227.20;;;;;;5072126;28;20447;-59
2022/03/06 05:42:24;;;;;;;87.20;53.00;;;102.50;2227.20;;;;;;5072284;28;20433;-59
2022/03/06 05:44:50;;;;;;;73.63;44.08;;;77.70;2227.20;;;;;;5072199;28;20028;-61
2022/03/06 05:47:16;;;;;;;77.28;45.92;;;102.40;2227.20;;;;;;5072350;28;20028;-58
2022/03/06 05:49:42;;;;;;;78.03;46.00;;;102.50;2227.20;;;;;;5072282;28;20078;-57
2022/03/06 05:52:07;;;;;;;70.55;43.60;;;102.40;2227.20;;;;;;5072249;28;20017;-58
2022/03/06 05:54:33;;;;;;;71.88;43.33;;;102.40;2227.20;;;;;;5071963;28;20437;-60
2022/03/06 05:56:59;;;;;;;69.85;43.83;;;102.50;2227.20;;;;;;5070708;28;20029;-58
2022/03/06 05:59:25;;;;;;;70.65;43.38;;;77.60;2227.20;;;;;;5072111;28;20401;-58
2022/03/06 06:01:51;;;;;;;69.97;43.47;;;102.40;2227.20;;;;;;5071838;28;20391;-60
2022/03/06 06:04:18;;;;;;;69.70;45.35;;;102.50;2227.20;;;;;;5071869;28;20025;-58
2022/03/06 06:06:44;;;;;;;71.13;40.83;;;102.60;2227.20;;;;;;5071958;28;20494;-60
2022/03/06 06:09:10;;;;;;;67.60;39.70;;;102.40;2227.20;;;;;;5071424;28;20115;-57
2022/03/06 06:11:35;;;;;;;63.30;41.22;;;102.40;2227.20;;;;;;5071570;28;20111;-59
2022/03/06 06:14:02;;;;;;;73.90;42.85;;;102.40;2227.20;;;;;;5071723;28;20024;-60
2022/03/06 06:16:28;;;;;;;67.30;40.58;;;102.50;2227.20;;;;;;5071438;28;20024;-58
2022/03/06 06:18:54;;;;;;;67.05;41.38;;;102.60;2227.20;;;;;;5071613;28;20040;-58
2022/03/06 06:21:19;;;;;;;79.68;50.75;;;102.50;2227.20;;;;;;5071443;28;20082;-57
2022/03/06 06:23:45;;;;;;;66.90;41.85;;;102.50;2227.20;;;;;;5071690;28;20075;-58
2022/03/06 06:26:12;;;;;;;61.97;37.40;;;102.40;2227.20;;;;;;5071135;28;20033;-58
2022/03/06 06:28:38;;;;;;;68.80;40.88;;;102.40;2227.20;;;;;;5071206;28;20094;-58
2022/03/06 06:31:06;;;;;;;79.53;49.13;;;102.40;2227.20;;;;;;5071435;28;20406;-57
2022/03/06 06:33:31;;;;;;;88.75;46.63;;;77.70;2227.20;;;;;;5071038;28;20037;-58
2022/03/06 06:35:57;;;;;;;73.63;43.30;;;102.40;2227.20;;;;;;5071433;28;20123;-57
2022/03/06 06:38:24;;;;;;;64.00;36.15;;;102.50;2227.20;;;;;;5071353;28;20047;-58
2022/03/06 06:40:50;;;;;;;60.55;35.22;;;102.60;2227.20;;;;;;5071059;28;20024;-58
2022/03/06 06:43:16;;;;;;;74.25;46.83;;;102.60;2227.20;;;;;;5071370;28;20032;-60
2022/03/06 06:45:42;;;;;;;69.28;45.22;;;102.50;2227.20;;;;;;5071539;28;20028;-61
2022/03/06 06:48:07;;;;;;;89.78;54.03;;;102.70;2227.20;;;;;;5071399;28;20530;-57
2022/03/06 06:50:33;;;;;;;58.67;37.08;;;102.60;2227.20;;;;;;5071153;28;20048;-58
2022/03/06 06:52:59;;;;;;;66.10;39.83;;;102.70;2227.20;;;;;;5070976;28;20036;-63
2022/03/06 06:55:25;;;;;;;94.15;59.45;;;102.80;2227.20;;;;;;5070853;28;20386;-58
2022/03/06 06:57:50;;;;;;;70.72;39.45;;;102.90;2227.20;;;;;;5070766;28;20039;-58
2022/03/06 07:00:17;;;;;;;185.40;125.93;;;102.60;2227.20;;;;;;5070831;28;20052;-59
2022/03/06 07:02:43;;;;;;;68.88;43.90;;;102.70;2227.20;;;;;;5070875;28;20498;-60
2022/03/06 07:05:12;;;;;;;83.90;47.58;;;102.50;2227.20;;;;;;5070930;28;20029;-60
2022/03/06 07:07:38;;;;;;;66.93;42.63;;;102.70;2227.20;;;;;;5071280;28;20021;-66
2022/03/06 07:10:04;;;;;;;65.20;40.88;;;102.70;2227.20;;;;;;5071484;28;20542;-57
2022/03/06 07:12:30;;;;;;;65.70;41.05;;;102.60;2227.20;;;;;;5070905;28;20059;-57
2022/03/06 07:14:56;;;;;;;96.90;63.20;;;102.60;2227.20;;;;;;5070717;28;20048;-58
2022/03/06 07:17:22;;;;;;;75.05;45.58;;;102.70;2227.20;;;;;;5070594;28;20065;-60
2022/03/06 07:19:48;;;;;;;64.15;42.33;;;102.90;2227.20;;;;;;5070416;28;20025;-58
2022/03/06 07:22:15;;;;;;;60.28;36.75;;;102.60;2227.20;;;;;;5070929;28;20051;-59
2022/03/06 07:24:41;;;;;;;87.30;53.17;;;102.70;2227.20;;;;;;5070450;28;20061;-57
2022/03/06 07:27:06;;;;;;;84.13;48.75;;;102.80;2227.20;;;;;;5070275;28;20076;-70
2022/03/06 07:29:32;;;;;;;66.50;44.03;;;102.90;2227.20;;;;;;5070047;28;20028;-60
2022/03/06 07:31:58;;;;;;;61.97;40.92;;;102.80;2227.20;;;;;;5070391;28;20086;-63
2022/03/06 07:34:23;;;;;;;64.20;39.10;;;103.00;2227.20;;;;;;5070549;28;20021;-58
2022/03/06 07:36:49;;;;;;;89.70;60.28;;;103.10;2227.20;;;;;;5070374;28;20040;-59
2022/03/06 07:39:15;;;;;;;92.03;55.58;;;103.10;2227.20;;;;;;5070309;28;20169;-60
2022/03/06 07:41:41;;;;;;;89.75;54.00;;;103.20;2227.20;;;;;;5070189;28;20020;-61
2022/03/06 07:44:06;;;;;;;74.70;46.95;;;103.20;2227.20;;;;;;5070280;28;20025;-60
2022/03/06 07:46:32;;;;;;;68.75;44.17;;;103.20;2227.20;;;;;;5070088;28;20105;-58
2022/03/06 07:48:58;;;;;;;70.70;43.20;;;103.00;2227.20;;;;;;5069986;28;20025;-62
2022/03/06 07:51:24;;;;;;;47.75;32.30;;;103.20;2227.20;;;;;;5068936;28;20032;-59
2022/03/06 07:53:49;;;;;;;61.53;38.25;;;103.00;2227.20;;;;;;5068366;28;20256;-59
2022/03/06 07:56:15;;;;;;;51.45;35.65;;;103.10;2227.20;;;;;;5068574;28;20159;-59
2022/03/06 07:58:41;;;;;;;57.22;36.38;;;102.80;2227.20;;;;;;5068538;28;20475;-58
2022/03/06 08:01:07;;;;;;;61.92;38.28;;;103.10;2227.20;;;;;;5068765;28;20033;-60
2022/03/06 08:03:33;;;;;;;68.65;44.13;;;103.10;2227.20;;;;;;5068496;28;20029;-59
2022/03/06 08:05:58;;;;;;;63.53;41.20;;;103.00;2227.20;;;;;;5068199;28;20029;-58
2022/03/06 08:08:24;;;;;;;50.22;34.13;;;102.80;2227.20;;;;;;5068741;28;20039;-59
2022/03/06 08:10:50;;;;;;;53.40;38.40;;;103.10;2227.20;;;;;;5068163;28;20037;-59
2022/03/06 08:13:16;;;;;;;78.47;49.35;;;103.10;2227.20;;;;;;5068639;28;20028;-58
2022/03/06 08:15:41;;;;;;;55.53;36.35;;;103.20;2227.20;;;;;;5068932;28;20035;-59
2022/03/06 08:18:07;;;;;;;69.30;46.67;;;103.20;2227.20;;;;;;5068116;28;20020;-59
2022/03/06 08:20:33;;;;;;;91.15;58.25;;;103.20;2227.20;;;;;;5070448;28;20566;-59
2022/03/06 08:23:00;;;;;;;83.65;56.80;;;128.10;2252.80;;;;;;5071983;28;20041;-59
2022/03/06 08:25:26;;;;;;;84.45;60.95;;;128.10;2252.80;;;;;;5071923;28;20039;-59
2022/03/06 08:27:52;;;;;;;114.50;65.22;;;103.20;2227.20;;;;;;5071580;28;20127;-60
2022/03/06 08:30:18;;;;;;;70.03;45.38;;;128.00;2252.80;;;;;;5071267;28;20742;-59
2022/03/06 08:32:44;;;;;;;178.32;104.18;;;103.30;2227.20;;;;;;5072137;28;20692;-58
2022/03/06 08:35:09;;;;;;;86.45;55.47;;;103.10;2227.20;;;;;;5071852;28;20078;-58
2022/03/06 08:37:36;;;;;;;136.52;90.25;;;103.00;2227.20;;;;;;5071971;28;20073;-58
2022/03/06 08:40:03;;;;;;;60.15;37.22;;;103.10;2227.20;;;;;;5071771;28;20075;-58
2022/03/06 08:42:29;;;;;;;82.63;50.00;;;103.10;2227.20;;;;;;5071585;28;20048;-59
2022/03/06 08:44:55;;;;;;;56.80;40.00;;;103.00;2227.20;;;;;;5071382;28;20071;-57
2022/03/06 08:47:21;;;;;;;58.45;40.70;;;102.80;2227.20;;;;;;5071562;28;20039;-58
2022/03/06 08:49:47;;;;;;;53.35;36.15;;;103.00;2227.20;;;;;;5071683;28;20182;-58
2022/03/06 08:52:12;;;;;;;50.65;37.47;;;103.10;2227.20;;;;;;5070652;28;20024;-58
2022/03/06 08:54:38;;;;;;;59.17;39.83;;;103.00;2227.20;;;;;;5070255;28;20036;-59
2022/03/06 08:57:04;;;;;;;59.05;36.97;;;103.00;2227.20;;;;;;5070515;28;20386;-56
2022/03/06 08:59:30;;;;;;;61.78;40.78;;;103.10;2227.20;;;;;;5071253;28;20394;-56
2022/03/06 09:01:56;;;;;;;63.20;39.90;;;103.20;2227.20;;;;;;5071549;28;20085;-57
2022/03/06 09:04:25;;;;;;;65.63;40.60;;;128.10;2252.80;;;;;;5071196;28;20051;-54
2022/03/06 09:06:52;;;;;;;76.82;45.47;;;128.10;2252.80;;;;;;5071210;28;20017;-54
2022/03/06 09:09:17;;;;;;;49.70;34.47;;;128.40;2252.80;;;;;;5071454;28;20039;-55
2022/03/06 09:11:45;;;;;;;53.22;35.80;;;128.00;2252.80;;;;;;5070908;28;20426;-58
2022/03/06 09:14:11;;;;;;;48.92;33.50;;;128.10;2252.80;;;;;;5071060;28;20380;-57
2022/03/06 09:16:37;;;;;;;51.38;35.35;;;128.20;2252.80;;;;;;5071431;28;20038;-56
2022/03/06 09:19:03;;;;;;;70.30;49.45;;;128.00;2252.80;;;;;;5070794;28;20382;-56
2022/03/06 09:21:29;;;;;;;66.82;42.00;;;128.20;2252.80;;;;;;5070877;28;20017;-57
2022/03/06 09:23:55;;;;;;;49.42;32.28;;;128.50;2252.80;;;;;;5070841;28;20039;-56
2022/03/06 09:26:21;;;;;;;65.93;41.10;;;103.00;2227.20;;;;;;5070672;28;20027;-57
2022/03/06 09:28:46;;;;;;;39.03;26.98;;;103.30;2227.20;;;;;;5070905;28;20548;-57
2022/03/06 09:31:12;;;;;;;50.40;35.33;;;103.10;2227.20;;;;;;5069468;28;20037;-56
2022/03/06 09:33:38;;;;;;;44.70;30.45;;;128.30;2252.80;;;;;;5070495;28;20017;-55
2022/03/06 09:36:04;;;;;;;42.20;28.70;;;103.30;2227.20;;;;;;5070423;28;20035;-56
2022/03/06 09:38:30;;;;;;;35.47;26.35;;;128.00;2252.80;;;;;;5070648;28;20028;-56
2022/03/06 09:41:00;;;;;;;37.42;25.70;;;128.30;2252.80;;;;;;5070896;28;20024;-56
2022/03/06 09:43:26;;;;;;;51.38;37.17;;;128.00;2252.80;;;;;;5070407;28;20492;-55
2022/03/06 09:46:06;;;;;;;85.85;56.47;;;128.30;2252.80;;;;;;5070437;28;20025;-55
2022/03/06 09:48:32;;;;;;;52.72;36.28;;;128.60;2252.80;;;;;;5070429;28;20017;-58
2022/03/06 09:50:58;;;;;;;63.05;47.30;;;128.40;2252.80;;;;;;5070323;28;20101;-55
2022/03/06 09:53:23;;;;;;;39.78;27.30;;;128.30;2252.80;;;;;;5070461;28;20103;-55
2022/03/06 09:55:49;;;;;;;43.17;30.55;;;128.30;2252.80;;;;;;5070109;28;20029;-57
2022/03/06 09:58:15;;;;;;;46.80;32.78;;;128.20;2252.80;;;;;;5070219;28;20040;-55
2022/03/06 10:00:42;;;;;;;45.55;30.13;;;103.30;2227.20;;;;;;5070040;28;20032;-56
2022/03/06 10:03:15;;;;;;;41.65;28.45;;;128.10;2252.80;;;;;;5070281;28;20043;-57
2022/03/06 10:05:41;;;;;;;40.45;27.90;;;128.10;2252.80;;;;;;5070103;28;20044;-56
2022/03/06 10:08:19;;;;;;;56.05;36.20;;;103.00;2227.20;;;;;;5070385;28;20024;-55
2022/03/06 10:10:47;;;;;;;74.70;47.17;;;103.20;2227.20;;;;;;5069957;28;20036;-55
2022/03/06 10:13:30;;;;;;;44.90;28.30;;;103.30;2227.20;;;;;;5069893;28;20112;-55
2022/03/06 10:16:02;;;;;;;61.97;37.47;;;102.70;2227.20;;;;;;5069835;28;20368;-55
2022/03/06 10:18:33;;;;;;;63.45;44.63;;;103.30;2227.20;;;;;;5070046;28;20155;-56
2022/03/06 10:21:23;;;;;;;51.80;31.23;;;102.70;2227.20;;;;;;5069789;28;20024;-56
2022/03/06 10:23:58;;;;;;;55.15;35.85;;;102.60;2227.20;;;;;;5068943;28;20037;-58
2022/03/06 10:26:34;;;;;;;47.38;35.05;;;103.00;2227.20;;;;;;5069605;28;20024;-57
2022/03/06 10:29:04;;;;;;;42.10;26.42;;;103.10;2227.20;;;;;;5069228;28;20094;-58
2022/03/06 10:31:33;;;;;;;45.97;29.27;;;102.70;2227.20;;;;;;5069407;28;20036;-60
2022/03/06 10:34:10;;;;;;;34.90;21.02;;;103.00;2227.20;;;;;;5069372;28;20073;-57
2022/03/06 10:36:42;;;;;;;41.83;26.52;;;102.90;2227.20;;;;;;5069765;28;20043;-57
2022/03/06 10:39:13;;;;;;;47.90;28.40;;;128.20;2252.80;;;;;;5069623;28;20108;-57
2022/03/06 10:41:41;;;;;;;45.70;26.58;;;128.50;2252.80;;;;;;5069081;28;20037;-57
2022/03/06 10:44:09;;;;;;;45.05;29.95;;;128.30;2252.80;;;;;;5068944;28;20024;-56
2022/03/06 10:46:36;;;;;;;63.17;37.58;;;128.40;2252.80;;;;;;5069456;28;20029;-57
2022/03/06 10:49:14;;;;;;;58.50;39.25;;;128.40;2252.80;;;;;;5069294;28;20028;-59
2022/03/06 10:51:46;;;;;;;61.78;40.25;;;128.40;2252.80;;;;;;5069348;28;20044;-56
2022/03/06 10:54:14;;;;;;;37.60;26.77;;;128.60;2252.80;;;;;;5068377;28;20463;-55
2022/03/06 10:56:43;;;;;;;61.78;46.55;;;128.10;2252.80;;;;;;5069298;28;20454;-57
2022/03/06 10:59:10;;;;;;;43.10;32.50;;;128.30;2252.80;;;;;;5069107;28;20483;-57
2022/03/06 11:01:38;;;;;;;44.38;33.22;;;128.00;2252.80;;;;;;5069249;28;20035;-60
2022/03/06 11:04:06;;;;;;;39.35;28.92;;;128.00;2252.80;;;;;;5069211;28;20564;-56
2022/03/06 11:06:42;;;;;;;60.97;39.47;;;128.10;2252.80;;;;;;5068838;28;20029;-59
2022/03/06 11:09:16;;;;;;;48.80;30.70;;;128.50;2252.80;;;;;;5068817;28;20060;-57
2022/03/06 11:11:48;;;;;;;40.00;25.75;;;128.70;2252.80;;;;;;5068661;28;20048;-56
2022/03/06 11:14:14;;;;;;;47.10;33.45;;;128.50;2252.80;;;;;;5069057;28;20450;-56
2022/03/06 11:16:41;;;;;;;62.88;41.90;;;128.20;2252.80;;;;;;5068649;28;20033;-57
2022/03/06 11:19:08;;;;;;;59.85;36.30;;;128.80;2252.80;;;;;;5069073;28;20032;-58
2022/03/06 11:21:38;;;;;;;167.65;107.93;;;128.60;2252.80;;;;;;5068584;28;20020;-57
2022/03/06 11:24:28;;;;;;;38.92;24.85;;;128.90;2252.80;;;;;;5069619;28;20035;-59
2022/03/06 11:27:31;;;;;;;73.75;49.40;;;128.40;2252.80;;;;;;5069303;28;20044;-57
2022/03/06 11:30:18;;;;;;;41.28;28.83;;;128.90;2252.80;;;;;;5068599;28;20616;-57
2022/03/06 11:33:01;;;;;;;35.58;24.27;;;128.70;2252.80;;;;;;5071864;28;20060;-58
2022/03/06 11:35:36;;;;;;;35.83;23.05;;;128.20;2252.80;;;;;;5067460;28;20374;-57
2022/03/06 11:38:03;;;;;;;35.13;24.35;;;128.30;2252.80;;;;;;5067991;28;20415;-56
2022/03/06 11:40:45;;;;;;;54.38;33.70;;;128.10;2252.80;;;;;;5068490;28;20020;-56
2022/03/06 11:43:12;;;;;;;52.20;35.22;;;128.20;2252.80;;;;;;5068445;28;20111;-56
2022/03/06 11:46:01;;;;;;;69.30;42.95;;;128.00;2252.80;;;;;;5068550;28;20032;-56
2022/03/06 11:48:32;;;;;;;87.57;56.45;;;128.20;2252.80;;;;;;5068256;28;20043;-56
2022/03/06 11:51:22;;;;;;;69.18;43.30;;;128.40;2252.80;;;;;;5068446;28;20040;-56
2022/03/06 11:53:57;;;;;;;51.13;31.77;;;128.10;2252.80;;;;;;5068215;28;20028;-57
2022/03/06 11:58:59;;;;;;;64.32;42.05;;;103.30;2227.20;;;;;;5070542;28;20428;-55
2022/03/06 12:01:33;;;;;;;57.17;39.72;;;128.00;2252.80;;;;;;5072628;28;20047;-57
2022/03/06 12:04:02;;;;;;;;;;;128.00;2252.80;;;;;;5072956;28;20118;-58